sensor_id;sensor_type;location;lat;lon;timestamp;P1;durP1;ratioP1;P2;durP2;ratioP2
77262;SDS011;66373;52.334;4.806;2023-05-07T00:00:57;2.78;;;2.35;;
77262;SDS011;66373;52.334;4.806;2023-05-07T00:03:27;5.15;;;2.47;;
77262;SDS011;66373;52.334;4.806;2023-05-07T00:05:55;3.22;;;2.20;;
77262;SDS011;66373;52.334;4.806;2023-05-07T00:08:22;3.50;;;2.40;;
77262;SDS011;66373;52.334;4.806;2023-05-07T00:10:49;4.50;;;2.50;;
77262;SDS011;66373;52.334;4.806;2023-05-07T00:13:16;5.00;;;2.60;;
77262;SDS011;66373;52.334;4.806;2023-05-07T00:15:43;4.90;;;2.35;;
77262;SDS011;66373;52.334;4.806;2023-05-07T00:18:11;3.28;;;2.55;;
77262;SDS011;66373;52.334;4.806;2023-05-07T00:20:39;4.40;;;2.38;;
77262;SDS011;66373;52.334;4.806;2023-05-07T00:23:05;4.10;;;2.72;;
77262;SDS011;66373;52.334;4.806;2023-05-07T00:25:33;6.45;;;2.63;;
77262;SDS011;66373;52.334;4.806;2023-05-07T00:27:59;5.97;;;2.80;;
77262;SDS011;66373;52.334;4.806;2023-05-07T00:30:29;4.75;;;2.50;;
77262;SDS011;66373;52.334;4.806;2023-05-07T00:32:56;7.63;;;2.83;;
77262;SDS011;66373;52.334;4.806;2023-05-07T00:35:24;7.15;;;2.53;;
77262;SDS011;66373;52.334;4.806;2023-05-07T00:37:51;7.95;;;2.70;;
77262;SDS011;66373;52.334;4.806;2023-05-07T00:40:18;4.65;;;2.63;;
77262;SDS011;66373;52.334;4.806;2023-05-07T00:42:45;4.68;;;2.38;;
77262;SDS011;66373;52.334;4.806;2023-05-07T00:45:14;6.10;;;2.80;;
77262;SDS011;66373;52.334;4.806;2023-05-07T00:47:42;5.30;;;2.70;;
77262;SDS011;66373;52.334;4.806;2023-05-07T00:50:09;6.15;;;3.03;;
77262;SDS011;66373;52.334;4.806;2023-05-07T00:52:39;6.03;;;2.88;;
77262;SDS011;66373;52.334;4.806;2023-05-07T00:55:07;5.97;;;2.45;;
77262;SDS011;66373;52.334;4.806;2023-05-07T00:57:36;5.35;;;2.70;;
77262;SDS011;66373;52.334;4.806;2023-05-07T01:00:05;6.70;;;2.30;;
77262;SDS011;66373;52.334;4.806;2023-05-07T01:02:33;5.57;;;2.38;;
77262;SDS011;66373;52.334;4.806;2023-05-07T01:05:01;4.63;;;2.60;;
77262;SDS011;66373;52.334;4.806;2023-05-07T01:07:32;4.45;;;2.60;;
77262;SDS011;66373;52.334;4.806;2023-05-07T01:10:01;4.70;;;2.30;;
77262;SDS011;66373;52.334;4.806;2023-05-07T01:12:29;6.68;;;2.50;;
77262;SDS011;66373;52.334;4.806;2023-05-07T01:14:58;10.13;;;2.80;;
77262;SDS011;66373;52.334;4.806;2023-05-07T01:17:25;5.00;;;2.53;;
77262;SDS011;66373;52.334;4.806;2023-05-07T01:19:53;5.68;;;2.28;;
77262;SDS011;66373;52.334;4.806;2023-05-07T01:22:27;6.05;;;2.65;;
77262;SDS011;66373;52.334;4.806;2023-05-07T01:24:58;4.35;;;2.78;;
77262;SDS011;66373;52.334;4.806;2023-05-07T01:27:27;4.32;;;2.58;;
77262;SDS011;66373;52.334;4.806;2023-05-07T01:29:55;5.72;;;2.60;;
77262;SDS011;66373;52.334;4.806;2023-05-07T01:32:27;4.43;;;2.70;;
77262;SDS011;66373;52.334;4.806;2023-05-07T01:34:58;4.47;;;2.35;;
77262;SDS011;66373;52.334;4.806;2023-05-07T01:37:27;6.03;;;2.63;;
77262;SDS011;66373;52.334;4.806;2023-05-07T01:39:55;5.35;;;2.30;;
77262;SDS011;66373;52.334;4.806;2023-05-07T01:42:23;2.65;;;2.20;;
77262;SDS011;66373;52.334;4.806;2023-05-07T01:44:51;8.77;;;2.58;;
77262;SDS011;66373;52.334;4.806;2023-05-07T01:47:18;5.13;;;2.83;;
77262;SDS011;66373;52.334;4.806;2023-05-07T01:49:47;2.85;;;2.00;;
77262;SDS011;66373;52.334;4.806;2023-05-07T01:52:14;4.65;;;2.40;;
77262;SDS011;66373;52.334;4.806;2023-05-07T01:54:42;2.45;;;2.22;;
77262;SDS011;66373;52.334;4.806;2023-05-07T01:57:09;4.22;;;2.40;;
77262;SDS011;66373;52.334;4.806;2023-05-07T01:59:37;3.05;;;2.28;;
77262;SDS011;66373;52.334;4.806;2023-05-07T02:02:04;2.85;;;2.28;;
77262;SDS011;66373;52.334;4.806;2023-05-07T02:04:32;3.95;;;2.30;;
77262;SDS011;66373;52.334;4.806;2023-05-07T02:06:59;2.00;;;1.90;;
77262;SDS011;66373;52.334;4.806;2023-05-07T02:09:26;2.53;;;1.83;;
77262;SDS011;66373;52.334;4.806;2023-05-07T02:11:55;2.80;;;2.53;;
77262;SDS011;66373;52.334;4.806;2023-05-07T02:14:23;2.45;;;2.25;;
77262;SDS011;66373;52.334;4.806;2023-05-07T02:16:51;2.72;;;2.08;;
77262;SDS011;66373;52.334;4.806;2023-05-07T02:19:18;3.38;;;2.35;;
77262;SDS011;66373;52.334;4.806;2023-05-07T02:21:46;4.07;;;2.28;;
77262;SDS011;66373;52.334;4.806;2023-05-07T02:24:13;2.45;;;2.15;;
77262;SDS011;66373;52.334;4.806;2023-05-07T02:26:41;3.20;;;2.28;;
77262;SDS011;66373;52.334;4.806;2023-05-07T02:29:10;4.30;;;2.53;;
77262;SDS011;66373;52.334;4.806;2023-05-07T02:31:38;2.90;;;2.28;;
77262;SDS011;66373;52.334;4.806;2023-05-07T02:34:05;3.83;;;2.10;;
77262;SDS011;66373;52.334;4.806;2023-05-07T02:36:32;4.60;;;2.30;;
77262;SDS011;66373;52.334;4.806;2023-05-07T02:39:04;3.13;;;2.22;;
77262;SDS011;66373;52.334;4.806;2023-05-07T02:41:31;2.83;;;2.00;;
77262;SDS011;66373;52.334;4.806;2023-05-07T02:43:58;3.30;;;2.70;;
77262;SDS011;66373;52.334;4.806;2023-05-07T02:46:27;2.53;;;2.33;;
77262;SDS011;66373;52.334;4.806;2023-05-07T02:49:01;3.17;;;2.30;;
77262;SDS011;66373;52.334;4.806;2023-05-07T02:51:29;2.97;;;2.20;;
77262;SDS011;66373;52.334;4.806;2023-05-07T02:54:00;3.58;;;2.40;;
77262;SDS011;66373;52.334;4.806;2023-05-07T02:56:28;4.28;;;2.28;;
77262;SDS011;66373;52.334;4.806;2023-05-07T02:58:55;2.20;;;2.10;;
77262;SDS011;66373;52.334;4.806;2023-05-07T03:01:25;2.35;;;2.03;;
77262;SDS011;66373;52.334;4.806;2023-05-07T03:04:00;2.42;;;2.22;;
77262;SDS011;66373;52.334;4.806;2023-05-07T03:06:27;2.58;;;2.30;;
77262;SDS011;66373;52.334;4.806;2023-05-07T03:08:54;2.25;;;2.10;;
77262;SDS011;66373;52.334;4.806;2023-05-07T03:11:21;2.30;;;2.05;;
77262;SDS011;66373;52.334;4.806;2023-05-07T03:13:48;2.08;;;1.98;;
77262;SDS011;66373;52.334;4.806;2023-05-07T03:16:17;2.17;;;1.98;;
77262;SDS011;66373;52.334;4.806;2023-05-07T03:18:44;2.35;;;2.10;;
77262;SDS011;66373;52.334;4.806;2023-05-07T03:21:12;2.67;;;2.47;;
77262;SDS011;66373;52.334;4.806;2023-05-07T03:23:40;2.22;;;2.03;;
77262;SDS011;66373;52.334;4.806;2023-05-07T03:26:07;1.95;;;1.85;;
77262;SDS011;66373;52.334;4.806;2023-05-07T03:28:34;2.45;;;2.13;;
77262;SDS011;66373;52.334;4.806;2023-05-07T03:31:04;2.13;;;1.92;;
77262;SDS011;66373;52.334;4.806;2023-05-07T03:33:33;2.25;;;1.92;;
77262;SDS011;66373;52.334;4.806;2023-05-07T03:36:00;2.25;;;2.10;;
77262;SDS011;66373;52.334;4.806;2023-05-07T03:38:29;2.28;;;2.08;;
77262;SDS011;66373;52.334;4.806;2023-05-07T03:40:56;2.22;;;2.10;;
77262;SDS011;66373;52.334;4.806;2023-05-07T03:43:23;2.63;;;2.38;;
77262;SDS011;66373;52.334;4.806;2023-05-07T03:45:58;2.20;;;1.98;;
77262;SDS011;66373;52.334;4.806;2023-05-07T03:48:27;1.95;;;1.80;;
77262;SDS011;66373;52.334;4.806;2023-05-07T03:50:56;2.17;;;1.95;;
77262;SDS011;66373;52.334;4.806;2023-05-07T03:53:28;3.03;;;2.15;;
77262;SDS011;66373;52.334;4.806;2023-05-07T03:55:56;2.38;;;2.05;;
77262;SDS011;66373;52.334;4.806;2023-05-07T03:58:23;2.30;;;2.10;;
77262;SDS011;66373;52.334;4.806;2023-05-07T04:00:52;2.17;;;2.08;;
77262;SDS011;66373;52.334;4.806;2023-05-07T04:03:24;2.72;;;2.15;;
77262;SDS011;66373;52.334;4.806;2023-05-07T04:05:51;2.45;;;2.20;;
77262;SDS011;66373;52.334;4.806;2023-05-07T04:08:19;4.82;;;2.30;;
77262;SDS011;66373;52.334;4.806;2023-05-07T04:10:55;2.47;;;2.13;;
77262;SDS011;66373;52.334;4.806;2023-05-07T04:13:24;3.78;;;1.98;;
77262;SDS011;66373;52.334;4.806;2023-05-07T04:15:51;2.45;;;1.95;;
77262;SDS011;66373;52.334;4.806;2023-05-07T04:18:19;2.50;;;2.10;;
77262;SDS011;66373;52.334;4.806;2023-05-07T04:20:47;3.97;;;2.20;;
77262;SDS011;66373;52.334;4.806;2023-05-07T04:23:15;1.80;;;1.70;;
77262;SDS011;66373;52.334;4.806;2023-05-07T04:25:42;2.17;;;2.00;;
77262;SDS011;66373;52.334;4.806;2023-05-07T04:28:23;2.13;;;1.98;;
77262;SDS011;66373;52.334;4.806;2023-05-07T04:30:51;2.35;;;2.17;;
77262;SDS011;66373;52.334;4.806;2023-05-07T04:33:20;2.35;;;2.15;;
77262;SDS011;66373;52.334;4.806;2023-05-07T04:35:49;2.10;;;1.90;;
77262;SDS011;66373;52.334;4.806;2023-05-07T04:38:16;2.65;;;2.05;;
77262;SDS011;66373;52.334;4.806;2023-05-07T04:40:45;3.17;;;2.10;;
77262;SDS011;66373;52.334;4.806;2023-05-07T04:43:17;2.35;;;2.15;;
77262;SDS011;66373;52.334;4.806;2023-05-07T04:45:50;2.03;;;1.90;;
77262;SDS011;66373;52.334;4.806;2023-05-07T04:48:19;5.57;;;2.20;;
77262;SDS011;66373;52.334;4.806;2023-05-07T04:50:47;3.92;;;2.10;;
77262;SDS011;66373;52.334;4.806;2023-05-07T04:53:15;6.15;;;2.25;;
77262;SDS011;66373;52.334;4.806;2023-05-07T04:55:43;3.58;;;2.00;;
77262;SDS011;66373;52.334;4.806;2023-05-07T04:58:10;2.88;;;1.80;;
77262;SDS011;66373;52.334;4.806;2023-05-07T05:00:38;2.00;;;1.85;;
77262;SDS011;66373;52.334;4.806;2023-05-07T05:03:07;3.08;;;1.98;;
77262;SDS011;66373;52.334;4.806;2023-05-07T05:05:37;3.00;;;2.00;;
77262;SDS011;66373;52.334;4.806;2023-05-07T05:08:04;2.58;;;2.00;;
77262;SDS011;66373;52.334;4.806;2023-05-07T05:10:32;3.38;;;2.45;;
77262;SDS011;66373;52.334;4.806;2023-05-07T05:12:59;2.75;;;2.22;;
77262;SDS011;66373;52.334;4.806;2023-05-07T05:15:27;4.50;;;2.13;;
77262;SDS011;66373;52.334;4.806;2023-05-07T05:17:54;2.20;;;2.00;;
77262;SDS011;66373;52.334;4.806;2023-05-07T05:20:23;2.83;;;2.00;;
77262;SDS011;66373;52.334;4.806;2023-05-07T05:22:51;2.28;;;2.08;;
77262;SDS011;66373;52.334;4.806;2023-05-07T05:25:18;2.10;;;1.95;;
77262;SDS011;66373;52.334;4.806;2023-05-07T05:27:45;2.15;;;1.90;;
77262;SDS011;66373;52.334;4.806;2023-05-07T05:30:13;5.35;;;2.10;;
77262;SDS011;66373;52.334;4.806;2023-05-07T05:32:44;2.97;;;1.80;;
77262;SDS011;66373;52.334;4.806;2023-05-07T05:35:11;7.60;;;2.10;;
77262;SDS011;66373;52.334;4.806;2023-05-07T05:37:41;2.30;;;2.10;;
77262;SDS011;66373;52.334;4.806;2023-05-07T05:40:08;4.75;;;2.50;;
77262;SDS011;66373;52.334;4.806;2023-05-07T05:42:36;1.98;;;1.88;;
77262;SDS011;66373;52.334;4.806;2023-05-07T05:45:03;1.85;;;1.73;;
77262;SDS011;66373;52.334;4.806;2023-05-07T05:47:32;2.03;;;1.83;;
77262;SDS011;66373;52.334;4.806;2023-05-07T05:50:00;2.28;;;2.03;;
77262;SDS011;66373;52.334;4.806;2023-05-07T05:52:27;2.58;;;1.90;;
77262;SDS011;66373;52.334;4.806;2023-05-07T05:54:56;2.03;;;1.90;;
77262;SDS011;66373;52.334;4.806;2023-05-07T05:57:26;3.45;;;2.00;;
77262;SDS011;66373;52.334;4.806;2023-05-07T05:59:54;2.88;;;2.22;;
77262;SDS011;66373;52.334;4.806;2023-05-07T06:02:21;2.42;;;2.08;;
77262;SDS011;66373;52.334;4.806;2023-05-07T06:04:48;5.97;;;2.10;;
77262;SDS011;66373;52.334;4.806;2023-05-07T06:07:18;3.95;;;2.10;;
77262;SDS011;66373;52.334;4.806;2023-05-07T06:09:45;2.20;;;2.00;;
77262;SDS011;66373;52.334;4.806;2023-05-07T06:12:14;1.85;;;1.75;;
77262;SDS011;66373;52.334;4.806;2023-05-07T06:14:42;4.15;;;2.17;;
77262;SDS011;66373;52.334;4.806;2023-05-07T06:17:10;4.72;;;2.25;;
77262;SDS011;66373;52.334;4.806;2023-05-07T06:19:37;14.77;;;2.00;;
77262;SDS011;66373;52.334;4.806;2023-05-07T06:22:05;3.35;;;2.20;;
77262;SDS011;66373;52.334;4.806;2023-05-07T06:24:33;3.65;;;1.90;;
77262;SDS011;66373;52.334;4.806;2023-05-07T06:27:00;2.33;;;2.00;;
77262;SDS011;66373;52.334;4.806;2023-05-07T06:29:30;4.57;;;2.45;;
77262;SDS011;66373;52.334;4.806;2023-05-07T06:32:05;4.00;;;2.15;;
77262;SDS011;66373;52.334;4.806;2023-05-07T06:34:34;8.48;;;2.75;;
77262;SDS011;66373;52.334;4.806;2023-05-07T06:37:01;1.83;;;1.73;;
77262;SDS011;66373;52.334;4.806;2023-05-07T06:39:45;3.90;;;2.03;;
77262;SDS011;66373;52.334;4.806;2023-05-07T06:42:12;3.22;;;1.80;;
77262;SDS011;66373;52.334;4.806;2023-05-07T06:44:43;2.90;;;1.92;;
77262;SDS011;66373;52.334;4.806;2023-05-07T06:47:12;3.20;;;1.88;;
77262;SDS011;66373;52.334;4.806;2023-05-07T06:49:39;7.50;;;1.98;;
77262;SDS011;66373;52.334;4.806;2023-05-07T06:52:07;4.07;;;1.98;;
77262;SDS011;66373;52.334;4.806;2023-05-07T06:54:34;4.03;;;2.00;;
77262;SDS011;66373;52.334;4.806;2023-05-07T06:57:02;4.68;;;2.10;;
77262;SDS011;66373;52.334;4.806;2023-05-07T06:59:30;3.38;;;2.20;;
77262;SDS011;66373;52.334;4.806;2023-05-07T07:02:00;4.15;;;2.15;;
77262;SDS011;66373;52.334;4.806;2023-05-07T07:04:27;3.13;;;2.05;;
77262;SDS011;66373;52.334;4.806;2023-05-07T07:07:01;4.38;;;2.10;;
77262;SDS011;66373;52.334;4.806;2023-05-07T07:09:28;3.38;;;1.85;;
77262;SDS011;66373;52.334;4.806;2023-05-07T07:11:56;5.03;;;2.30;;
77262;SDS011;66373;52.334;4.806;2023-05-07T07:14:23;3.78;;;2.00;;
77262;SDS011;66373;52.334;4.806;2023-05-07T07:16:52;11.25;;;2.08;;
77262;SDS011;66373;52.334;4.806;2023-05-07T07:19:22;8.65;;;2.38;;
77262;SDS011;66373;52.334;4.806;2023-05-07T07:21:52;3.63;;;2.22;;
77262;SDS011;66373;52.334;4.806;2023-05-07T07:24:19;13.90;;;2.70;;
77262;SDS011;66373;52.334;4.806;2023-05-07T07:26:49;10.55;;;2.30;;
77262;SDS011;66373;52.334;4.806;2023-05-07T07:29:19;12.63;;;2.45;;
77262;SDS011;66373;52.334;4.806;2023-05-07T07:31:47;9.73;;;2.40;;
77262;SDS011;66373;52.334;4.806;2023-05-07T07:34:14;9.57;;;2.58;;
77262;SDS011;66373;52.334;4.806;2023-05-07T07:36:43;10.82;;;2.40;;
77262;SDS011;66373;52.334;4.806;2023-05-07T07:39:10;10.25;;;2.55;;
77262;SDS011;66373;52.334;4.806;2023-05-07T07:41:38;6.70;;;2.17;;
77262;SDS011;66373;52.334;4.806;2023-05-07T07:44:05;10.10;;;2.47;;
77262;SDS011;66373;52.334;4.806;2023-05-07T07:46:36;3.38;;;2.55;;
77262;SDS011;66373;52.334;4.806;2023-05-07T07:49:03;7.40;;;3.08;;
77262;SDS011;66373;52.334;4.806;2023-05-07T07:51:31;8.18;;;3.03;;
77262;SDS011;66373;52.334;4.806;2023-05-07T07:54:00;7.63;;;3.30;;
77262;SDS011;66373;52.334;4.806;2023-05-07T07:56:29;4.95;;;3.13;;
77262;SDS011;66373;52.334;4.806;2023-05-07T07:58:56;4.75;;;2.97;;
77262;SDS011;66373;52.334;4.806;2023-05-07T08:01:24;6.45;;;3.13;;
77262;SDS011;66373;52.334;4.806;2023-05-07T08:03:52;5.85;;;2.85;;
77262;SDS011;66373;52.334;4.806;2023-05-07T08:06:20;4.90;;;3.22;;
77262;SDS011;66373;52.334;4.806;2023-05-07T08:08:47;7.60;;;3.40;;
77262;SDS011;66373;52.334;4.806;2023-05-07T08:11:18;5.03;;;3.20;;
77262;SDS011;66373;52.334;4.806;2023-05-07T08:13:45;5.53;;;3.30;;
77262;SDS011;66373;52.334;4.806;2023-05-07T08:16:13;8.50;;;3.17;;
77262;SDS011;66373;52.334;4.806;2023-05-07T08:18:41;8.45;;;3.58;;
77262;SDS011;66373;52.334;4.806;2023-05-07T08:21:08;8.05;;;3.47;;
77262;SDS011;66373;52.334;4.806;2023-05-07T08:23:35;4.40;;;3.40;;
77262;SDS011;66373;52.334;4.806;2023-05-07T08:26:03;5.30;;;3.10;;
77262;SDS011;66373;52.334;4.806;2023-05-07T08:28:32;4.47;;;3.20;;
77262;SDS011;66373;52.334;4.806;2023-05-07T08:30:59;6.57;;;3.78;;
77262;SDS011;66373;52.334;4.806;2023-05-07T08:33:29;4.60;;;3.05;;
77262;SDS011;66373;52.334;4.806;2023-05-07T08:35:56;8.77;;;3.97;;
77262;SDS011;66373;52.334;4.806;2023-05-07T08:38:23;11.43;;;3.63;;
77262;SDS011;66373;52.334;4.806;2023-05-07T08:40:51;7.05;;;3.50;;
77262;SDS011;66373;52.334;4.806;2023-05-07T08:43:19;9.32;;;3.78;;
77262;SDS011;66373;52.334;4.806;2023-05-07T08:45:49;6.10;;;3.30;;
77262;SDS011;66373;52.334;4.806;2023-05-07T08:48:21;5.90;;;3.17;;
77262;SDS011;66373;52.334;4.806;2023-05-07T08:51:18;4.60;;;2.63;;
77262;SDS011;66373;52.334;4.806;2023-05-07T08:53:48;6.47;;;3.03;;
77262;SDS011;66373;52.334;4.806;2023-05-07T08:56:21;5.70;;;2.42;;
77262;SDS011;66373;52.334;4.806;2023-05-07T08:58:51;5.28;;;2.58;;
77262;SDS011;66373;52.334;4.806;2023-05-07T09:01:23;5.88;;;2.83;;
77262;SDS011;66373;52.334;4.806;2023-05-07T09:03:52;2.80;;;2.50;;
77262;SDS011;66373;52.334;4.806;2023-05-07T09:06:22;2.60;;;2.40;;
77262;SDS011;66373;52.334;4.806;2023-05-07T09:08:49;5.78;;;2.78;;
77262;SDS011;66373;52.334;4.806;2023-05-07T09:11:19;3.10;;;2.20;;
77262;SDS011;66373;52.334;4.806;2023-05-07T09:13:49;2.65;;;2.10;;
77262;SDS011;66373;52.334;4.806;2023-05-07T09:16:20;3.75;;;2.35;;
77262;SDS011;66373;52.334;4.806;2023-05-07T09:18:50;2.70;;;2.50;;
77262;SDS011;66373;52.334;4.806;2023-05-07T09:21:33;2.75;;;2.17;;
77262;SDS011;66373;52.334;4.806;2023-05-07T09:24:05;2.55;;;2.35;;
77262;SDS011;66373;52.334;4.806;2023-05-07T09:26:37;2.53;;;2.10;;
77262;SDS011;66373;52.334;4.806;2023-05-07T09:29:05;8.05;;;2.20;;
77262;SDS011;66373;52.334;4.806;2023-05-07T09:31:35;2.85;;;2.42;;
77262;SDS011;66373;52.334;4.806;2023-05-07T09:34:05;4.90;;;2.20;;
77262;SDS011;66373;52.334;4.806;2023-05-07T09:36:35;2.28;;;2.08;;
77262;SDS011;66373;52.334;4.806;2023-05-07T09:39:02;2.75;;;2.33;;
77262;SDS011;66373;52.334;4.806;2023-05-07T09:41:30;2.75;;;2.25;;
77262;SDS011;66373;52.334;4.806;2023-05-07T09:44:12;3.17;;;2.20;;
77262;SDS011;66373;52.334;4.806;2023-05-07T09:46:45;2.78;;;2.20;;
77262;SDS011;66373;52.334;4.806;2023-05-07T09:49:23;2.40;;;2.20;;
77262;SDS011;66373;52.334;4.806;2023-05-07T09:52:00;2.80;;;2.35;;
77262;SDS011;66373;52.334;4.806;2023-05-07T09:54:31;2.25;;;2.05;;
77262;SDS011;66373;52.334;4.806;2023-05-07T09:57:01;2.50;;;2.30;;
77262;SDS011;66373;52.334;4.806;2023-05-07T09:59:29;3.78;;;2.65;;
77262;SDS011;66373;52.334;4.806;2023-05-07T10:02:02;4.20;;;2.10;;
77262;SDS011;66373;52.334;4.806;2023-05-07T10:04:35;2.70;;;2.50;;
77262;SDS011;66373;52.334;4.806;2023-05-07T10:07:03;2.28;;;2.08;;
77262;SDS011;66373;52.334;4.806;2023-05-07T10:09:31;2.30;;;2.13;;
77262;SDS011;66373;52.334;4.806;2023-05-07T10:11:59;3.58;;;2.28;;
77262;SDS011;66373;52.334;4.806;2023-05-07T10:14:28;5.13;;;2.47;;
77262;SDS011;66373;52.334;4.806;2023-05-07T10:16:56;2.78;;;2.03;;
77262;SDS011;66373;52.334;4.806;2023-05-07T10:19:25;2.20;;;1.90;;
77262;SDS011;66373;52.334;4.806;2023-05-07T10:21:58;3.13;;;2.15;;
77262;SDS011;66373;52.334;4.806;2023-05-07T10:24:31;2.08;;;1.92;;
77262;SDS011;66373;52.334;4.806;2023-05-07T10:27:04;2.90;;;2.30;;
77262;SDS011;66373;52.334;4.806;2023-05-07T10:29:37;3.45;;;2.30;;
77262;SDS011;66373;52.334;4.806;2023-05-07T10:32:12;2.47;;;2.28;;
77262;SDS011;66373;52.334;4.806;2023-05-07T10:34:47;2.00;;;1.80;;
77262;SDS011;66373;52.334;4.806;2023-05-07T10:37:19;2.20;;;2.00;;
77262;SDS011;66373;52.334;4.806;2023-05-07T10:39:46;3.58;;;2.05;;
77262;SDS011;66373;52.334;4.806;2023-05-07T10:42:14;2.38;;;2.00;;
77262;SDS011;66373;52.334;4.806;2023-05-07T10:44:47;2.25;;;2.00;;
77262;SDS011;66373;52.334;4.806;2023-05-07T10:47:21;2.67;;;2.13;;
77262;SDS011;66373;52.334;4.806;2023-05-07T11:02:04;3.10;;;2.22;;
77262;SDS011;66373;52.334;4.806;2023-05-07T11:08:20;6.00;;;2.30;;
77262;SDS011;66373;52.334;4.806;2023-05-07T11:11:04;3.08;;;2.40;;
77262;SDS011;66373;52.334;4.806;2023-05-07T11:13:42;5.38;;;2.42;;
77262;SDS011;66373;52.334;4.806;2023-05-07T11:16:19;3.15;;;2.58;;
77262;SDS011;66373;52.334;4.806;2023-05-07T11:18:54;2.92;;;2.08;;
77262;SDS011;66373;52.334;4.806;2023-05-07T11:21:37;2.83;;;2.38;;
77262;SDS011;66373;52.334;4.806;2023-05-07T11:24:25;12.15;;;2.60;;
77262;SDS011;66373;52.334;4.806;2023-05-07T11:26:58;23.00;;;2.70;;
77262;SDS011;66373;52.334;4.806;2023-05-07T11:29:28;5.07;;;2.67;;
77262;SDS011;66373;52.334;4.806;2023-05-07T11:32:03;8.15;;;2.50;;
77262;SDS011;66373;52.334;4.806;2023-05-07T11:34:37;7.47;;;2.58;;
77262;SDS011;66373;52.334;4.806;2023-05-07T11:37:05;10.30;;;2.58;;
77262;SDS011;66373;52.334;4.806;2023-05-07T11:39:48;8.63;;;2.38;;
77262;SDS011;66373;52.334;4.806;2023-05-07T11:42:27;6.20;;;2.30;;
77262;SDS011;66373;52.334;4.806;2023-05-07T11:44:54;11.00;;;2.60;;
77262;SDS011;66373;52.334;4.806;2023-05-07T11:47:22;8.88;;;2.50;;
77262;SDS011;66373;52.334;4.806;2023-05-07T11:49:50;12.77;;;2.70;;
77262;SDS011;66373;52.334;4.806;2023-05-07T11:52:19;18.80;;;2.97;;
77262;SDS011;66373;52.334;4.806;2023-05-07T11:54:51;8.23;;;2.35;;
77262;SDS011;66373;52.334;4.806;2023-05-07T11:57:20;5.95;;;2.33;;
77262;SDS011;66373;52.334;4.806;2023-05-07T11:59:48;8.07;;;2.25;;
77262;SDS011;66373;52.334;4.806;2023-05-07T12:02:19;11.32;;;2.40;;
77262;SDS011;66373;52.334;4.806;2023-05-07T12:04:46;16.52;;;2.78;;
77262;SDS011;66373;52.334;4.806;2023-05-07T12:07:13;11.23;;;2.63;;
77262;SDS011;66373;52.334;4.806;2023-05-07T12:09:41;12.77;;;2.78;;
77262;SDS011;66373;52.334;4.806;2023-05-07T12:12:08;7.13;;;2.72;;
77262;SDS011;66373;52.334;4.806;2023-05-07T12:14:37;6.45;;;2.65;;
77262;SDS011;66373;52.334;4.806;2023-05-07T12:17:07;12.52;;;2.83;;
77262;SDS011;66373;52.334;4.806;2023-05-07T12:19:35;8.38;;;2.92;;
77262;SDS011;66373;52.334;4.806;2023-05-07T12:22:03;20.65;;;2.95;;
77262;SDS011;66373;52.334;4.806;2023-05-07T12:24:41;5.65;;;2.38;;
77262;SDS011;66373;52.334;4.806;2023-05-07T12:27:10;5.35;;;2.35;;
77262;SDS011;66373;52.334;4.806;2023-05-07T12:29:37;9.15;;;2.88;;
77262;SDS011;66373;52.334;4.806;2023-05-07T12:32:14;9.48;;;2.65;;
77262;SDS011;66373;52.334;4.806;2023-05-07T12:34:42;14.20;;;3.13;;
77262;SDS011;66373;52.334;4.806;2023-05-07T12:37:09;9.40;;;2.88;;
77262;SDS011;66373;52.334;4.806;2023-05-07T12:39:38;13.43;;;2.67;;
77262;SDS011;66373;52.334;4.806;2023-05-07T12:42:10;12.63;;;2.95;;
77262;SDS011;66373;52.334;4.806;2023-05-07T12:47:15;14.27;;;2.85;;
77262;SDS011;66373;52.334;4.806;2023-05-07T12:49:43;15.95;;;2.92;;
77262;SDS011;66373;52.334;4.806;2023-05-07T12:52:11;21.83;;;3.20;;
77262;SDS011;66373;52.334;4.806;2023-05-07T12:54:39;15.23;;;3.20;;
77262;SDS011;66373;52.334;4.806;2023-05-07T12:57:07;13.07;;;3.10;;
77262;SDS011;66373;52.334;4.806;2023-05-07T12:59:35;12.70;;;3.17;;
77262;SDS011;66373;52.334;4.806;2023-05-07T13:02:04;13.23;;;2.70;;
77262;SDS011;66373;52.334;4.806;2023-05-07T13:04:35;28.80;;;3.65;;
77262;SDS011;66373;52.334;4.806;2023-05-07T13:07:06;13.38;;;3.17;;
77262;SDS011;66373;52.334;4.806;2023-05-07T13:09:33;10.90;;;2.97;;
77262;SDS011;66373;52.334;4.806;2023-05-07T13:12:02;19.15;;;3.00;;
77262;SDS011;66373;52.334;4.806;2023-05-07T13:14:30;29.63;;;4.22;;
77262;SDS011;66373;52.334;4.806;2023-05-07T13:16:57;34.17;;;4.03;;
77262;SDS011;66373;52.334;4.806;2023-05-07T13:19:25;14.20;;;3.33;;
77262;SDS011;66373;52.334;4.806;2023-05-07T13:21:53;18.48;;;4.07;;
77262;SDS011;66373;52.334;4.806;2023-05-07T13:24:21;11.30;;;3.20;;
77262;SDS011;66373;52.334;4.806;2023-05-07T13:26:48;17.10;;;3.28;;
77262;SDS011;66373;52.334;4.806;2023-05-07T13:29:15;16.63;;;2.90;;
77262;SDS011;66373;52.334;4.806;2023-05-07T13:31:42;12.55;;;3.17;;
77262;SDS011;66373;52.334;4.806;2023-05-07T13:34:09;24.95;;;3.88;;
77262;SDS011;66373;52.334;4.806;2023-05-07T13:36:36;15.65;;;3.63;;
77262;SDS011;66373;52.334;4.806;2023-05-07T13:39:09;15.63;;;3.10;;
77262;SDS011;66373;52.334;4.806;2023-05-07T13:41:36;19.90;;;3.72;;
77262;SDS011;66373;52.334;4.806;2023-05-07T13:44:03;19.27;;;3.15;;
77262;SDS011;66373;52.334;4.806;2023-05-07T13:46:30;13.20;;;3.08;;
77262;SDS011;66373;52.334;4.806;2023-05-07T13:48:57;21.20;;;3.75;;
77262;SDS011;66373;52.334;4.806;2023-05-07T13:51:25;25.98;;;3.35;;
77262;SDS011;66373;52.334;4.806;2023-05-07T13:53:54;25.58;;;3.63;;
77262;SDS011;66373;52.334;4.806;2023-05-07T13:56:25;29.13;;;3.85;;
77262;SDS011;66373;52.334;4.806;2023-05-07T13:58:53;23.38;;;3.53;;
77262;SDS011;66373;52.334;4.806;2023-05-07T14:01:23;30.88;;;3.72;;
77262;SDS011;66373;52.334;4.806;2023-05-07T14:03:50;29.17;;;3.83;;
77262;SDS011;66373;52.334;4.806;2023-05-07T14:06:18;47.20;;;5.43;;
77262;SDS011;66373;52.334;4.806;2023-05-07T14:08:45;29.98;;;4.40;;
77262;SDS011;66373;52.334;4.806;2023-05-07T14:11:12;28.00;;;3.95;;
77262;SDS011;66373;52.334;4.806;2023-05-07T14:13:47;22.00;;;3.70;;
77262;SDS011;66373;52.334;4.806;2023-05-07T14:16:17;30.63;;;3.85;;
77262;SDS011;66373;52.334;4.806;2023-05-07T14:18:44;28.27;;;4.07;;
77262;SDS011;66373;52.334;4.806;2023-05-07T14:21:11;19.63;;;3.30;;
77262;SDS011;66373;52.334;4.806;2023-05-07T14:23:39;20.15;;;3.67;;
77262;SDS011;66373;52.334;4.806;2023-05-07T14:26:08;36.25;;;4.63;;
77262;SDS011;66373;52.334;4.806;2023-05-07T14:28:38;30.73;;;4.03;;
77262;SDS011;66373;52.334;4.806;2023-05-07T14:31:17;16.15;;;3.55;;
77262;SDS011;66373;52.334;4.806;2023-05-07T14:33:50;15.55;;;3.22;;
77262;SDS011;66373;52.334;4.806;2023-05-07T14:36:22;22.08;;;3.70;;
77262;SDS011;66373;52.334;4.806;2023-05-07T14:38:53;25.30;;;4.75;;
77262;SDS011;66373;52.334;4.806;2023-05-07T14:41:21;28.17;;;3.95;;
77262;SDS011;66373;52.334;4.806;2023-05-07T14:43:49;15.75;;;3.25;;
77262;SDS011;66373;52.334;4.806;2023-05-07T14:46:28;24.05;;;3.25;;
77262;SDS011;66373;52.334;4.806;2023-05-07T14:50:20;19.17;;;3.63;;
77262;SDS011;66373;52.334;4.806;2023-05-07T14:52:19;11.95;;;3.00;;
77262;SDS011;66373;52.334;4.806;2023-05-07T14:54:46;15.02;;;3.00;;
77262;SDS011;66373;52.334;4.806;2023-05-07T14:57:13;9.23;;;2.97;;
77262;SDS011;66373;52.334;4.806;2023-05-07T14:59:41;10.45;;;2.80;;
77262;SDS011;66373;52.334;4.806;2023-05-07T15:02:11;9.73;;;3.22;;
77262;SDS011;66373;52.334;4.806;2023-05-07T15:04:45;10.60;;;3.08;;
77262;SDS011;66373;52.334;4.806;2023-05-07T15:07:12;8.85;;;3.15;;
77262;SDS011;66373;52.334;4.806;2023-05-07T15:09:43;6.57;;;2.78;;
77262;SDS011;66373;52.334;4.806;2023-05-07T15:12:11;7.78;;;2.88;;
77262;SDS011;66373;52.334;4.806;2023-05-07T15:14:38;10.48;;;3.05;;
77262;SDS011;66373;52.334;4.806;2023-05-07T15:17:05;7.38;;;2.78;;